sensor_id;sensor_type;location;lat;lon;timestamp;pressure;altitude;pressure_sealevel;temperature;humidity
22311;BME280;11323;49.610;11.016;2024-02-16T00:00:08;98218.59;;;10.25;77.37
22311;BME280;11323;49.610;11.016;2024-02-16T00:05:14;98211.63;;;10.24;76.79
22311;BME280;11323;49.610;11.016;2024-02-16T00:10:15;98195.94;;;10.16;77.00
22311;BME280;11323;49.610;11.016;2024-02-16T00:15:18;98198.13;;;10.19;77.37
22311;BME280;11323;49.610;11.016;2024-02-16T00:20:22;98192.88;;;10.24;77.47
22311;BME280;11323;49.610;11.016;2024-02-16T00:25:27;98204.50;;;10.29;77.54
22311;BME280;11323;49.610;11.016;2024-02-16T00:30:28;98211.22;;;10.32;77.31
22311;BME280;11323;49.610;11.016;2024-02-16T00:35:29;98213.44;;;10.35;77.54
22311;BME280;11323;49.610;11.016;2024-02-16T00:40:33;98210.28;;;10.38;77.32
22311;BME280;11323;49.610;11.016;2024-02-16T00:45:37;98206.56;;;10.39;77.09
22311;BME280;11323;49.610;11.016;2024-02-16T00:50:41;98199.00;;;10.36;77.03
22311;BME280;11323;49.610;11.016;2024-02-16T00:55:43;98201.66;;;10.36;77.37
22311;BME280;11323;49.610;11.016;2024-02-16T01:00:50;98223.91;;;10.36;77.22
22311;BME280;11323;49.610;11.016;2024-02-16T01:05:52;98225.19;;;10.34;77.00
22311;BME280;11323;49.610;11.016;2024-02-16T01:10:53;98224.63;;;10.32;76.96
22311;BME280;11323;49.610;11.016;2024-02-16T01:15:54;98221.84;;;10.27;76.95
22311;BME280;11323;49.610;11.016;2024-02-16T01:21:01;98216.63;;;10.20;77.43
22311;BME280;11323;49.610;11.016;2024-02-16T01:26:03;98222.69;;;10.16;77.38
22311;BME280;11323;49.610;11.016;2024-02-16T01:31:04;98229.09;;;10.15;77.04
22311;BME280;11323;49.610;11.016;2024-02-16T01:36:05;98223.66;;;10.10;77.30
22311;BME280;11323;49.610;11.016;2024-02-16T01:41:09;98216.53;;;10.03;77.37
22311;BME280;11323;49.610;11.016;2024-02-16T01:46:11;98220.25;;;10.02;77.14
22311;BME280;11323;49.610;11.016;2024-02-16T01:51:13;98220.03;;;10.04;77.64
22311;BME280;11323;49.610;11.016;2024-02-16T01:56:17;98217.34;;;10.04;77.72
22311;BME280;11323;49.610;11.016;2024-02-16T02:01:22;98198.72;;;9.97;77.64
22311;BME280;11323;49.610;11.016;2024-02-16T02:06:23;98204.19;;;10.02;77.24
22311;BME280;11323;49.610;11.016;2024-02-16T02:11:25;98202.56;;;10.01;77.23
22311;BME280;11323;49.610;11.016;2024-02-16T02:16:28;98196.06;;;9.97;77.43
22311;BME280;11323;49.610;11.016;2024-02-16T02:21:29;98196.53;;;9.94;77.59
22311;BME280;11323;49.610;11.016;2024-02-16T02:26:30;98181.19;;;9.90;77.60
22311;BME280;11323;49.610;11.016;2024-02-16T02:31:31;98186.88;;;9.93;77.17
22311;BME280;11323;49.610;11.016;2024-02-16T02:36:32;98177.22;;;9.92;77.30
22311;BME280;11323;49.610;11.016;2024-02-16T02:41:33;98170.72;;;9.88;77.50
22311;BME280;11323;49.610;11.016;2024-02-16T02:46:35;98175.81;;;9.90;77.44
22311;BME280;11323;49.610;11.016;2024-02-16T02:51:35;98179.31;;;9.90;77.31
22311;BME280;11323;49.610;11.016;2024-02-16T02:56:36;98174.56;;;9.92;77.87
22311;BME280;11323;49.610;11.016;2024-02-16T03:01:37;98166.84;;;9.96;77.60
22311;BME280;11323;49.610;11.016;2024-02-16T03:06:39;98159.06;;;9.94;77.75
22311;BME280;11323;49.610;11.016;2024-02-16T03:11:39;98165.22;;;9.95;77.47
22311;BME280;11323;49.610;11.016;2024-02-16T03:16:40;98161.00;;;9.99;77.38
22311;BME280;11323;49.610;11.016;2024-02-16T03:21:41;98160.56;;;10.02;77.32
22311;BME280;11323;49.610;11.016;2024-02-16T03:26:42;98171.84;;;10.04;77.95
22311;BME280;11323;49.610;11.016;2024-02-16T03:31:43;98168.91;;;10.06;77.43
22311;BME280;11323;49.610;11.016;2024-02-16T03:36:44;98168.00;;;10.12;77.33
22311;BME280;11323;49.610;11.016;2024-02-16T03:41:45;98168.25;;;10.10;77.20
22311;BME280;11323;49.610;11.016;2024-02-16T03:46:49;98164.16;;;10.08;77.27
22311;BME280;11323;49.610;11.016;2024-02-16T03:51:52;98169.50;;;10.08;77.65
22311;BME280;11323;49.610;11.016;2024-02-16T03:56:57;98170.69;;;10.12;77.18
22311;BME280;11323;49.610;11.016;2024-02-16T04:01:58;98178.00;;;10.16;77.38
22311;BME280;11323;49.610;11.016;2024-02-16T04:06:59;98177.66;;;10.13;77.45
22311;BME280;11323;49.610;11.016;2024-02-16T04:12:04;98178.47;;;10.13;76.93
22311;BME280;11323;49.610;11.016;2024-02-16T04:17:05;98196.25;;;10.19;77.16
22311;BME280;11323;49.610;11.016;2024-02-16T04:22:09;98182.56;;;10.16;77.46
22311;BME280;11323;49.610;11.016;2024-02-16T04:27:12;98173.13;;;10.13;76.95
22311;BME280;11323;49.610;11.016;2024-02-16T04:32:13;98165.19;;;10.07;77.83
22311;BME280;11323;49.610;11.016;2024-02-16T04:37:17;98173.38;;;10.12;77.28
22311;BME280;11323;49.610;11.016;2024-02-16T04:42:19;98178.34;;;10.20;76.85
22311;BME280;11323;49.610;11.016;2024-02-16T04:47:20;98169.59;;;10.24;77.13
22311;BME280;11323;49.610;11.016;2024-02-16T04:52:21;98170.91;;;10.22;76.72
22311;BME280;11323;49.610;11.016;2024-02-16T04:57:22;98169.38;;;10.26;76.82
22311;BME280;11323;49.610;11.016;2024-02-16T05:02:23;98162.13;;;10.26;76.80
22311;BME280;11323;49.610;11.016;2024-02-16T05:07:24;98165.63;;;10.27;77.21
22311;BME280;11323;49.610;11.016;2024-02-16T05:12:28;98171.63;;;10.34;77.16
22311;BME280;11323;49.610;11.016;2024-02-16T05:17:32;98167.94;;;10.35;76.52
22311;BME280;11323;49.610;11.016;2024-02-16T05:22:36;98175.97;;;10.35;76.91
22311;BME280;11323;49.610;11.016;2024-02-16T05:27:37;98181.91;;;10.37;76.67
22311;BME280;11323;49.610;11.016;2024-02-16T05:32:42;98177.44;;;10.42;76.84
22311;BME280;11323;49.610;11.016;2024-02-16T05:37:45;98176.16;;;10.45;76.21
22311;BME280;11323;49.610;11.016;2024-02-16T05:42:51;98181.50;;;10.45;76.66
22311;BME280;11323;49.610;11.016;2024-02-16T05:47:52;98178.25;;;10.43;76.64
22311;BME280;11323;49.610;11.016;2024-02-16T05:52:53;98186.19;;;10.38;76.66
22311;BME280;11323;49.610;11.016;2024-02-16T05:57:56;98184.06;;;10.40;76.78
22311;BME280;11323;49.610;11.016;2024-02-16T06:02:57;98197.59;;;10.45;76.83
22311;BME280;11323;49.610;11.016;2024-02-16T06:07:58;98197.59;;;10.45;76.61
22311;BME280;11323;49.610;11.016;2024-02-16T06:13:02;98209.09;;;10.45;76.10
22311;BME280;11323;49.610;11.016;2024-02-16T06:18:14;98214.44;;;10.45;76.83
22311;BME280;11323;49.610;11.016;2024-02-16T06:23:18;98214.44;;;10.45;76.43
22311;BME280;11323;49.610;11.016;2024-02-16T06:28:29;98224.38;;;10.45;76.71
22311;BME280;11323;49.610;11.016;2024-02-16T06:33:30;98213.31;;;10.41;76.40
22311;BME280;11323;49.610;11.016;2024-02-16T06:38:32;98223.22;;;10.41;76.40
22311;BME280;11323;49.610;11.016;2024-02-16T06:43:36;98225.78;;;10.36;76.80
22311;BME280;11323;49.610;11.016;2024-02-16T06:48:36;98229.84;;;10.38;76.23
22311;BME280;11323;49.610;11.016;2024-02-16T06:53:38;98235.44;;;10.37;76.60
22311;BME280;11323;49.610;11.016;2024-02-16T06:58:39;98228.69;;;10.34;76.40
22311;BME280;11323;49.610;11.016;2024-02-16T07:03:40;98232.19;;;10.35;76.57
22311;BME280;11323;49.610;11.016;2024-02-16T07:08:53;98248.03;;;10.36;76.90
22311;BME280;11323;49.610;11.016;2024-02-16T07:14:01;98241.84;;;10.36;76.55
22311;BME280;11323;49.610;11.016;2024-02-16T07:19:12;98247.69;;;10.33;76.89
22311;BME280;11323;49.610;11.016;2024-02-16T07:24:16;98247.19;;;10.36;76.47
22311;BME280;11323;49.610;11.016;2024-02-16T07:29:26;98242.91;;;10.35;76.69
22311;BME280;11323;49.610;11.016;2024-02-16T07:34:27;98236.03;;;10.39;76.67
22311;BME280;11323;49.610;11.016;2024-02-16T07:40:10;98248.69;;;10.43;76.94
22311;BME280;11323;49.610;11.016;2024-02-16T07:45:58;98246.13;;;10.48;76.81
22311;BME280;11323;49.610;11.016;2024-02-16T07:51:07;98251.81;;;10.52;76.61
22311;BME280;11323;49.610;11.016;2024-02-16T07:56:11;98255.91;;;10.54;76.69
22311;BME280;11323;49.610;11.016;2024-02-16T08:01:15;98256.09;;;10.64;76.10
22311;BME280;11323;49.610;11.016;2024-02-16T08:06:18;98267.47;;;10.71;76.33
22311;BME280;11323;49.610;11.016;2024-02-16T08:11:22;98256.06;;;10.76;76.10
22311;BME280;11323;49.610;11.016;2024-02-16T08:16:23;98268.00;;;10.85;76.39
22311;BME280;11323;49.610;11.016;2024-02-16T08:21:40;98265.97;;;10.92;76.03
22311;BME280;11323;49.610;11.016;2024-02-16T08:26:46;98265.03;;;10.98;75.89
22311;BME280;11323;49.610;11.016;2024-02-16T08:32:00;98267.38;;;11.11;75.34
22311;BME280;11323;49.610;11.016;2024-02-16T08:37:09;98264.19;;;11.26;75.68
22311;BME280;11323;49.610;11.016;2024-02-16T08:42:11;98266.06;;;11.42;75.51
22311;BME280;11323;49.610;11.016;2024-02-16T08:47:15;98264.97;;;11.59;75.16
22311;BME280;11323;49.610;11.016;2024-02-16T08:52:17;98267.28;;;11.67;74.53
22311;BME280;11323;49.610;11.016;2024-02-16T08:57:22;98274.63;;;11.72;74.49
22311;BME280;11323;49.610;11.016;2024-02-16T09:02:28;98270.72;;;11.79;74.81
22311;BME280;11323;49.610;11.016;2024-02-16T09:07:29;98286.97;;;11.90;74.64
22311;BME280;11323;49.610;11.016;2024-02-16T09:12:30;98282.22;;;11.97;74.04
22311;BME280;11323;49.610;11.016;2024-02-16T09:17:31;98283.38;;;12.01;74.44
22311;BME280;11323;49.610;11.016;2024-02-16T09:22:32;98280.09;;;11.99;73.77
22311;BME280;11323;49.610;11.016;2024-02-16T09:27:33;98284.75;;;11.87;74.35
22311;BME280;11323;49.610;11.016;2024-02-16T09:32:33;98282.56;;;11.84;73.85
22311;BME280;11323;49.610;11.016;2024-02-16T09:37:35;98290.38;;;11.85;74.17
22311;BME280;11323;49.610;11.016;2024-02-16T09:42:38;98293.38;;;11.89;73.88
22311;BME280;11323;49.610;11.016;2024-02-16T09:47:41;98298.84;;;11.94;73.64
22311;BME280;11323;49.610;11.016;2024-02-16T09:52:49;98294.09;;;12.01;73.79
22311;BME280;11323;49.610;11.016;2024-02-16T09:58:01;98299.78;;;12.04;74.00
22311;BME280;11323;49.610;11.016;2024-02-16T10:03:03;98302.56;;;12.09;73.36
22311;BME280;11323;49.610;11.016;2024-02-16T10:08:12;98307.75;;;12.16;73.34
22311;BME280;11323;49.610;11.016;2024-02-16T10:13:13;98309.69;;;12.20;73.25
22311;BME280;11323;49.610;11.016;2024-02-16T10:18:14;98311.88;;;12.23;73.17
22311;BME280;11323;49.610;11.016;2024-02-16T10:23:15;98308.53;;;12.33;72.50
22311;BME280;11323;49.610;11.016;2024-02-16T10:28:16;98310.28;;;12.44;72.90
22311;BME280;11323;49.610;11.016;2024-02-16T10:33:17;98318.97;;;12.51;72.34
22311;BME280;11323;49.610;11.016;2024-02-16T10:38:19;98310.09;;;12.50;73.00
22311;BME280;11323;49.610;11.016;2024-02-16T10:43:21;98317.16;;;12.56;72.57
22311;BME280;11323;49.610;11.016;2024-02-16T10:48:23;98323.50;;;12.67;72.52
22311;BME280;11323;49.610;11.016;2024-02-16T10:53:27;98324.06;;;12.69;72.37
22311;BME280;11323;49.610;11.016;2024-02-16T10:58:29;98325.19;;;12.73;72.15
22311;BME280;11323;49.610;11.016;2024-02-16T11:03:32;98323.84;;;12.76;72.43
22311;BME280;11323;49.610;11.016;2024-02-16T11:08:38;98328.22;;;12.82;72.19
22311;BME280;11323;49.610;11.016;2024-02-16T11:13:39;98314.56;;;12.83;72.00
22311;BME280;11323;49.610;11.016;2024-02-16T11:18:45;98311.88;;;12.83;71.76
22311;BME280;11323;49.610;11.016;2024-02-16T11:24:07;98299.22;;;12.84;71.99
22311;BME280;11323;49.610;11.016;2024-02-16T11:29:11;98293.66;;;12.90;71.62
22311;BME280;11323;49.610;11.016;2024-02-16T11:34:25;98297.38;;;12.89;72.29
22311;BME280;11323;49.610;11.016;2024-02-16T11:39:27;98302.31;;;12.97;71.88
22311;BME280;11323;49.610;11.016;2024-02-16T11:44:31;98299.47;;;13.04;71.50
22311;BME280;11323;49.610;11.016;2024-02-16T11:49:32;98303.03;;;13.09;71.74
22311;BME280;11323;49.610;11.016;2024-02-16T11:54:33;98299.88;;;13.17;71.28
22311;BME280;11323;49.610;11.016;2024-02-16T11:59:35;98302.06;;;13.20;71.78
22311;BME280;11323;49.610;11.016;2024-02-16T12:04:38;98306.69;;;13.25;71.26
22311;BME280;11323;49.610;11.016;2024-02-16T12:09:39;98300.00;;;13.27;71.22
22311;BME280;11323;49.610;11.016;2024-02-16T12:14:41;98304.38;;;13.33;71.26
22311;BME280;11323;49.610;11.016;2024-02-16T12:19:46;98301.91;;;13.32;71.21
22311;BME280;11323;49.610;11.016;2024-02-16T12:24:49;98287.66;;;13.31;70.88
22311;BME280;11323;49.610;11.016;2024-02-16T12:29:54;98296.22;;;13.28;71.18
22311;BME280;11323;49.610;11.016;2024-02-16T12:34:54;98300.00;;;13.27;71.04
22311;BME280;11323;49.610;11.016;2024-02-16T12:39:55;98291.97;;;13.32;71.14
22311;BME280;11323;49.610;11.016;2024-02-16T12:44:56;98294.19;;;13.40;71.32
22311;BME280;11323;49.610;11.016;2024-02-16T12:50:00;98293.16;;;13.46;71.10
22311;BME280;11323;49.610;11.016;2024-02-16T12:55:01;98298.56;;;13.46;70.71
22311;BME280;11323;49.610;11.016;2024-02-16T13:00:52;98292.34;;;13.46;70.83
22311;BME280;11323;49.610;11.016;2024-02-16T13:06:48;98291.06;;;13.53;70.83
22311;BME280;11323;49.610;11.016;2024-02-16T13:12:24;98290.25;;;13.53;70.62
22311;BME280;11323;49.610;11.016;2024-02-16T13:18:16;98297.00;;;13.55;70.40
22311;BME280;11323;49.610;11.016;2024-02-16T13:23:44;98287.34;;;13.59;70.57
22311;BME280;11323;49.610;11.016;2024-02-16T13:29:11;98299.25;;;13.69;70.05
22311;BME280;11323;49.610;11.016;2024-02-16T13:35:01;98299.81;;;13.71;70.27
22311;BME280;11323;49.610;11.016;2024-02-16T13:40:04;98304.41;;;13.70;70.24
22311;BME280;11323;49.610;11.016;2024-02-16T13:45:08;98302.78;;;13.69;70.05
22311;BME280;11323;49.610;11.016;2024-02-16T13:50:10;98299.81;;;13.71;70.00
22311;BME280;11323;49.610;11.016;2024-02-16T13:55:12;98291.50;;;13.72;70.20
22311;BME280;11323;49.610;11.016;2024-02-16T14:00:13;98298.25;;;13.75;69.88
22311;BME280;11323;49.610;11.016;2024-02-16T14:05:16;98302.03;;;13.74;70.03
22311;BME280;11323;49.610;11.016;2024-02-16T14:10:17;98301.22;;;13.78;69.75
22311;BME280;11323;49.610;11.016;2024-02-16T14:15:18;98298.84;;;13.82;70.07
22311;BME280;11323;49.610;11.016;2024-02-16T14:20:19;98296.44;;;13.85;70.02
22311;BME280;11323;49.610;11.016;2024-02-16T14:25:22;98302.38;;;13.87;69.76
22311;BME280;11323;49.610;11.016;2024-02-16T14:30:24;98301.00;;;13.85;69.83
22311;BME280;11323;49.610;11.016;2024-02-16T14:35:25;98306.69;;;13.88;70.29
22311;BME280;11323;49.610;11.016;2024-02-16T14:40:26;98306.47;;;13.90;69.86
22311;BME280;11323;49.610;11.016;2024-02-16T14:45:27;98302.13;;;13.89;70.10
22311;BME280;11323;49.610;11.016;2024-02-16T14:50:28;98299.69;;;13.87;69.79
22311;BME280;11323;49.610;11.016;2024-02-16T14:55:30;98297.00;;;13.87;70.07
22311;BME280;11323;49.610;11.016;2024-02-16T15:00:30;98314.22;;;13.86;69.99
22311;BME280;11323;49.610;11.016;2024-02-16T15:05:31;98303.16;;;13.83;70.10
22311;BME280;11323;49.610;11.016;2024-02-16T15:10:32;98308.53;;;13.83;69.87
22311;BME280;11323;49.610;11.016;2024-02-16T15:15:33;98319.03;;;13.79;69.88
22311;BME280;11323;49.610;11.016;2024-02-16T15:20:34;98327.63;;;13.76;70.25
22311;BME280;11323;49.610;11.016;2024-02-16T15:25:34;98326.25;;;13.74;70.34
22311;BME280;11323;49.610;11.016;2024-02-16T15:30:35;98329.50;;;13.76;70.25
22311;BME280;11323;49.610;11.016;2024-02-16T15:35:40;98333.78;;;13.72;70.29
22311;BME280;11323;49.610;11.016;2024-02-16T15:40:41;98336.97;;;13.69;70.49
22311;BME280;11323;49.610;11.016;2024-02-16T15:45:43;98351.75;;;13.66;70.50
22311;BME280;11323;49.610;11.016;2024-02-16T15:50:48;98349.81;;;13.62;70.09
22311;BME280;11323;49.610;11.016;2024-02-16T15:55:49;98352.50;;;13.56;70.68
22311;BME280;11323;49.610;11.016;2024-02-16T16:00:52;98355.94;;;13.52;70.43
22311;BME280;11323;49.610;11.016;2024-02-16T16:05:53;98364.19;;;13.45;70.65
22311;BME280;11323;49.610;11.016;2024-02-16T16:10:54;98362.03;;;13.42;70.58
22311;BME280;11323;49.610;11.016;2024-02-16T16:15:56;98366.00;;;13.35;70.74
22311;BME280;11323;49.610;11.016;2024-02-16T16:21:05;98381.28;;;13.29;71.09
22311;BME280;11323;49.610;11.016;2024-02-16T16:26:06;98379.59;;;13.23;71.20
22311;BME280;11323;49.610;11.016;2024-02-16T16:31:06;98382.53;;;13.22;71.22
22311;BME280;11323;49.610;11.016;2024-02-16T16:36:09;98387.59;;;13.18;71.42
22311;BME280;11323;49.610;11.016;2024-02-16T16:41:13;98400.47;;;13.16;70.95
22311;BME280;11323;49.610;11.016;2024-02-16T16:46:14;98409.63;;;13.15;71.72
22311;BME280;11323;49.610;11.016;2024-02-16T16:51:15;98411.19;;;13.11;71.31
22311;BME280;11323;49.610;11.016;2024-02-16T16:56:18;98420.81;;;13.07;71.53
22311;BME280;11323;49.610;11.016;2024-02-16T17:01:19;98434.28;;;13.07;71.82
22311;BME280;11323;49.610;11.016;2024-02-16T17:06:26;98435.22;;;13.01;71.56
22311;BME280;11323;49.610;11.016;2024-02-16T17:11:28;98446.00;;;13.01;71.90
22311;BME280;11323;49.610;11.016;2024-02-16T17:16:29;98443.91;;;13.03;71.86
22311;BME280;11323;49.610;11.016;2024-02-16T17:21:30;98437.88;;;12.96;71.72
22311;BME280;11323;49.610;11.016;2024-02-16T17:26:30;98452.34;;;12.95;72.18
22311;BME280;11323;49.610;11.016;2024-02-16T17:32:08;98462.25;;;12.90;71.94
22311;BME280;11323;49.610;11.016;2024-02-16T17:37:10;98467.34;;;12.91;71.87
22311;BME280;11323;49.610;11.016;2024-02-16T17:42:11;98478.63;;;12.88;72.15
22311;BME280;11323;49.610;11.016;2024-02-16T17:47:12;98479.59;;;12.82;72.32
22311;BME280;11323;49.610;11.016;2024-02-16T17:52:13;98476.91;;;12.82;71.98
22311;BME280;11323;49.610;11.016;2024-02-16T17:57:14;98487.09;;;12.80;72.16
22311;BME280;11323;49.610;11.016;2024-02-16T18:02:16;98493.47;;;12.74;72.28
22311;BME280;11323;49.610;11.016;2024-02-16T18:07:17;98497.22;;;12.73;72.29
22311;BME280;11323;49.610;11.016;2024-02-16T18:12:17;98506.34;;;12.72;72.73
22311;BME280;11323;49.610;11.016;2024-02-16T18:17:19;98516.53;;;12.70;73.01
22311;BME280;11323;49.610;11.016;2024-02-16T18:22:20;98512.22;;;12.69;72.53
22311;BME280;11323;49.610;11.016;2024-02-16T18:27:20;98521.91;;;12.70;72.64
22311;BME280;11323;49.610;11.016;2024-02-16T18:32:21;98508.47;;;12.70;72.58
22311;BME280;11323;49.610;11.016;2024-02-16T18:37:22;98520.84;;;12.71;72.72
22311;BME280;11323;49.610;11.016;2024-02-16T18:42:23;98521.91;;;12.70;73.22
22311;BME280;11323;49.610;11.016;2024-02-16T18:47:24;98527.78;;;12.67;73.02
22311;BME280;11323;49.610;11.016;2024-02-16T18:52:24;98533.72;;;12.69;72.59
22311;BME280;11323;49.610;11.016;2024-02-16T18:57:25;98539.56;;;12.66;73.49
22311;BME280;11323;49.610;11.016;2024-02-16T19:02:26;98540.06;;;12.63;72.35
22311;BME280;11323;49.610;11.016;2024-02-16T19:07:27;98555.69;;;12.66;73.20
22311;BME280;11323;49.610;11.016;2024-02-16T19:12:28;98554.91;;;12.65;73.26
22311;BME280;11323;49.610;11.016;2024-02-16T19:17:29;98567.28;;;12.66;73.25
22311;BME280;11323;49.610;11.016;2024-02-16T19:22:30;98560.03;;;12.67;73.63
22311;BME280;11323;49.610;11.016;2024-02-16T19:27:32;98566.25;;;12.67;72.95
22311;BME280;11323;49.610;11.016;2024-02-16T19:32:33;98567.59;;;12.70;73.37
22311;BME280;11323;49.610;11.016;2024-02-16T19:37:34;98571.03;;;12.65;73.58
22311;BME280;11323;49.610;11.016;2024-02-16T19:42:35;98573.47;;;12.67;72.69
22311;BME280;11323;49.610;11.016;2024-02-16T19:47:37;98594.00;;;12.73;73.39
22311;BME280;11323;49.610;11.016;2024-02-16T19:52:39;98597.75;;;12.72;73.32
22311;BME280;11323;49.610;11.016;2024-02-16T19:57:40;98610.63;;;12.70;72.92
22311;BME280;11323;49.610;11.016;2024-02-16T20:02:40;98612.25;;;12.71;73.40
22311;BME280;11323;49.610;11.016;2024-02-16T20:07:41;98609.00;;;12.69;73.40
22311;BME280;11323;49.610;11.016;2024-02-16T20:12:44;98614.84;;;12.66;73.88
22311;BME280;11323;49.610;11.016;2024-02-16T20:17:46;98623.47;;;12.68;73.90
22311;BME280;11323;49.610;11.016;2024-02-16T20:22:47;98636.34;;;12.66;73.61
22311;BME280;11323;49.610;11.016;2024-02-16T20:27:51;98643.84;;;12.64;73.84
22311;BME280;11323;49.610;11.016;2024-02-16T20:32:54;98650.38;;;12.68;74.09
22311;BME280;11323;49.610;11.016;2024-02-16T20:38:03;98649.91;;;12.71;74.20
22311;BME280;11323;49.610;11.016;2024-02-16T20:43:10;98662.25;;;12.72;74.24
22311;BME280;11323;49.610;11.016;2024-02-16T20:48:13;98660.66;;;12.71;74.23
22311;BME280;11323;49.610;11.016;2024-02-16T20:53:14;98665.19;;;12.70;74.45
22311;BME280;11323;49.610;11.016;2024-02-16T20:58:18;98671.97;;;12.73;74.26
22311;BME280;11323;49.610;11.016;2024-02-16T21:03:22;98657.06;;;12.65;75.13
22311;BME280;11323;49.610;11.016;2024-02-16T21:08:27;98666.03;;;12.71;74.89
22311;BME280;11323;49.610;11.016;2024-02-16T21:13:34;98671.06;;;12.67;74.81
22311;BME280;11323;49.610;11.016;2024-02-16T21:18:38;98676.09;;;12.64;75.11
22311;BME280;11323;49.610;11.016;2024-02-16T21:24:05;98667.38;;;12.57;74.60
22311;BME280;11323;49.610;11.016;2024-02-16T21:29:08;98694.16;;;12.52;75.22
22311;BME280;11323;49.610;11.016;2024-02-16T21:34:13;98693.34;;;12.51;75.70
22311;BME280;11323;49.610;11.016;2024-02-16T21:39:14;98696.03;;;12.51;75.87
22311;BME280;11323;49.610;11.016;2024-02-16T21:44:16;98706.53;;;12.53;75.59
22311;BME280;11323;49.610;11.016;2024-02-16T21:49:17;98701.16;;;12.53;75.70
22311;BME280;11323;49.610;11.016;2024-02-16T21:54:22;98712.25;;;12.56;75.96
22311;BME280;11323;49.610;11.016;2024-02-16T21:59:23;98715.03;;;12.61;75.67
22311;BME280;11323;49.610;11.016;2024-02-16T22:04:24;98710.47;;;12.62;75.70
22311;BME280;11323;49.610;11.016;2024-02-16T22:09:27;98715.38;;;12.65;75.53
22311;BME280;11323;49.610;11.016;2024-02-16T22:14:31;98718.53;;;12.62;75.51
22311;BME280;11323;49.610;11.016;2024-02-16T22:19:35;98735.59;;;12.67;75.88
22311;BME280;11323;49.610;11.016;2024-02-16T22:24:36;98732.91;;;12.67;75.64
22311;BME280;11323;49.610;11.016;2024-02-16T22:29:39;98739.06;;;12.68;76.41
22311;BME280;11323;49.610;11.016;2024-02-16T22:34:40;98727.75;;;12.66;76.00
22311;BME280;11323;49.610;11.016;2024-02-16T22:39:43;98740.59;;;12.64;nan
22311;BME280;11323;49.610;11.016;2024-02-16T22:44:47;98744.69;;;12.66;76.50
22311;BME280;11323;49.610;11.016;2024-02-16T22:49:48;98739.06;;;12.68;76.37
22311;BME280;11323;49.610;11.016;2024-02-16T22:54:55;98750.41;;;12.70;76.56
22311;BME280;11323;49.610;11.016;2024-02-16T22:59:56;98750.91;;;12.67;76.58
22311;BME280;11323;49.610;11.016;2024-02-16T23:04:57;98753.34;;;12.68;76.88
22311;BME280;11323;49.610;11.016;2024-02-16T23:10:04;98764.66;;;12.70;76.62
22311;BME280;11323;49.610;11.016;2024-02-16T23:15:06;98753.34;;;12.68;76.58
22311;BME280;11323;49.610;11.016;2024-02-16T23:20:12;98759.53;;;12.69;76.59
22311;BME280;11323;49.610;11.016;2024-02-16T23:25:18;98763.28;;;12.68;76.74
22311;BME280;11323;49.610;11.016;2024-02-16T23:30:19;98762.47;;;12.67;76.98
22311;BME280;11323;49.610;11.016;2024-02-16T23:35:23;98770.28;;;12.69;76.58
22311;BME280;11323;49.610;11.016;2024-02-16T23:40:27;98772.41;;;12.67;76.84
22311;BME280;11323;49.610;11.016;2024-02-16T23:45:35;98780.47;;;12.67;76.54
22311;BME280;11323;49.610;11.016;2024-02-16T23:50:36;98769.59;;;12.62;76.71
22311;BME280;11323;49.610;11.016;2024-02-16T23:55:37;98769.38;;;12.63;76.66
